Time,TemperatureF,DewpointF,PressureIn,WindDirection,WindDirectionDegrees,WindSpeedMPH,WindSpeedGustMPH,Humidity,HourlyPrecipIn,Conditions,Clouds,dailyrainin,SolarRadiationWatts/m^2,SoftwareType,DateUTC
2013-08-01 00:04:00,70.9,67.8,29.93,WSW,237,0.0,3.0,90,0.00,,---,0.00,0.00,VWS V14.00,2013-08-01 04:04:00,
2013-08-01 00:09:00,70.9,67.8,29.93,WSW,237,0.0,2.0,90,0.00,,---,0.00,0.00,VWS V14.00,2013-08-01 04:09:00,
2013-08-01 00:14:00,70.8,67.7,29.93,WSW,246,2.0,3.0,90,0.00,,---,0.00,0.00,VWS V14.00,2013-08-01 04:14:00,
2013-08-01 00:19:00,70.8,67.7,29.93,SW,233,0.0,5.0,90,0.00,,---,0.00,0.00,VWS V14.00,2013-08-01 04:19:00,
2013-08-01 00:24:00,70.8,67.7,29.92,West,261,0.0,3.0,90,0.00,,---,0.00,0.00,VWS V14.00,2013-08-01 04:24:00,
2013-08-01 00:29:00,70.7,67.6,29.92,West,267,0.0,3.0,90,0.00,,---,0.00,0.00,VWS V14.00,2013-08-01 04:29:00,
2013-08-01 00:34:00,70.6,67.5,29.92,West,267,0.0,2.0,90,0.00,,---,0.00,0.00,VWS V14.00,2013-08-01 04:34:00,
2013-08-01 00:39:00,70.6,67.5,29.92,SW,234,0.0,5.0,90,0.00,,---,0.00,0.00,VWS V14.00,2013-08-01 04:39:00,
2013-08-01 00:44:00,70.5,67.4,29.92,SW,236,1.0,2.0,90,0.00,,---,0.00,0.00,VWS V14.00,2013-08-01 04:44:00,
2013-08-01 00:49:00,70.4,67.3,29.92,SW,236,0.0,1.0,90,0.00,,---,0.00,0.00,VWS V14.00,2013-08-01 04:49:00,
2013-08-01 00:54:00,70.3,67.2,29.92,WSW,257,0.0,1.0,90,0.00,,---,0.00,0.00,VWS V14.00,2013-08-01 04:54:00,
2013-08-01 00:59:00,70.1,67.0,29.92,West,275,0.0,0.0,90,0.00,,---,0.00,0.00,VWS V14.00,2013-08-01 04:59:00,
2013-08-01 01:04:00,70.1,67.0,29.92,West,268,4.0,4.0,90,0.00,,---,0.00,0.00,VWS V14.00,2013-08-01 05:04:00,
2013-08-01 01:09:00,70.0,66.9,29.92,WSW,246,1.0,1.0,90,0.00,,---,0.00,0.00,VWS V14.00,2013-08-01 05:09:00,
2013-08-01 01:14:00,69.9,66.8,29.92,WSW,250,1.0,1.0,90,0.00,,---,0.00,0.00,VWS V14.00,2013-08-01 05:14:00,
2013-08-01 01:19:00,69.9,66.8,29.92,SW,234,3.0,5.0,90,0.00,,---,0.00,0.00,VWS V14.00,2013-08-01 05:19:00,
2013-08-01 01:24:00,69.8,66.7,29.92,WSW,238,1.0,1.0,90,0.00,,---,0.00,0.00,VWS V14.00,2013-08-01 05:24:00,
2013-08-01 01:29:00,69.8,66.7,29.92,West,259,2.0,2.0,90,0.00,,---,0.00,0.00,VWS V14.00,2013-08-01 05:29:00,
2013-08-01 01:34:00,69.7,66.6,29.92,West,268,2.0,2.0,90,0.00,,---,0.00,0.00,VWS V14.00,2013-08-01 05:34:00,
2013-08-01 01:39:00,69.5,66.4,29.92,West,270,0.0,0.0,90,0.00,,---,0.00,0.00,VWS V14.00,2013-08-01 05:39:00,
2013-08-01 01:44:00,69.4,66.3,29.91,West,270,0.0,0.0,90,0.00,,---,0.00,0.00,VWS V14.00,2013-08-01 05:44:00,
2013-08-01 01:49:00,69.3,65.9,29.91,West,270,0.0,0.0,89,0.00,,---,0.00,0.00,VWS V14.00,2013-08-01 05:49:00,
2013-08-01 01:54:00,69.2,66.2,29.91,West,270,1.0,1.0,90,0.00,,---,0.00,0.00,VWS V14.00,2013-08-01 05:54:00,
2013-08-01 01:59:00,69.0,65.6,29.91,West,276,1.0,1.0,89,0.00,,---,0.00,0.00,VWS V14.00,2013-08-01 05:59:00,
2013-08-01 02:04:00,68.9,65.5,29.91,West,276,2.0,2.0,89,0.00,,---,0.00,0.00,VWS V14.00,2013-08-01 06:04:00,
2013-08-01 02:09:00,68.8,65.4,29.91,West,276,0.0,0.0,89,0.00,,---,0.00,0.00,VWS V14.00,2013-08-01 06:09:00,
2013-08-01 02:14:00,68.6,65.2,29.91,West,279,0.0,1.0,89,0.00,,---,0.00,0.00,VWS V14.00,2013-08-01 06:14:00,
2013-08-01 02:19:00,68.5,65.1,29.91,WNW,284,2.0,3.0,89,0.00,,---,0.00,0.00,VWS V14.00,2013-08-01 06:19:00,
2013-08-01 02:24:00,68.5,65.1,29.91,WNW,284,0.0,0.0,89,0.00,,---,0.00,0.00,VWS V14.00,2013-08-01 06:24:00,
2013-08-01 02:29:00,68.4,65.0,29.91,West,263,1.0,2.0,89,0.00,,---,0.00,0.00,VWS V14.00,2013-08-01 06:29:00,
2013-08-01 02:34:00,68.4,64.7,29.90,West,279,3.0,3.0,88,0.00,,---,0.00,0.00,VWS V14.00,2013-08-01 06:34:00,
2013-08-01 02:39:00,68.5,64.8,29.90,WNW,294,3.0,4.0,88,0.00,,---,0.00,0.00,VWS V14.00,2013-08-01 06:39:00,
2013-08-01 02:44:00,68.5,64.8,29.90,WNW,286,2.0,2.0,88,0.00,,---,0.00,0.00,VWS V14.00,2013-08-01 06:44:00,
2013-08-01 02:49:00,68.4,64.7,29.90,WNW,285,4.0,4.0,88,0.00,,---,0.00,0.00,VWS V14.00,2013-08-01 06:49:00,
2013-08-01 02:54:00,68.4,64.7,29.90,WNW,297,5.0,5.0,88,0.00,,---,0.00,0.00,VWS V14.00,2013-08-01 06:54:00,
2013-08-01 02:59:00,68.4,64.7,29.90,WNW,302,2.0,4.0,88,0.00,,---,0.00,0.00,VWS V14.00,2013-08-01 06:59:00,
2013-08-01 03:04:00,68.5,64.8,29.90,WNW,297,4.0,5.0,88,0.00,,---,0.00,0.00,VWS V14.00,2013-08-01 07:04:00,
2013-08-01 03:09:00,68.4,64.7,29.90,WSW,254,2.0,2.0,88,0.00,,---,0.00,0.00,VWS V14.00,2013-08-01 07:09:00,
2013-08-01 03:14:00,68.5,64.8,29.90,WNW,297,5.0,5.0,88,0.00,,---,0.00,0.00,VWS V14.00,2013-08-01 07:14:00,
2013-08-01 03:19:00,68.4,64.7,29.90,NW,323,2.0,5.0,88,0.00,,---,0.00,0.00,VWS V14.00,2013-08-01 07:19:00,
2013-08-01 03:24:00,68.4,64.7,29.90,NW,313,4.0,5.0,88,0.00,,---,0.00,0.00,VWS V14.00,2013-08-01 07:24:00,
2013-08-01 03:29:00,68.5,64.8,29.90,NW,322,5.0,6.0,88,0.00,,---,0.00,0.00,VWS V14.00,2013-08-01 07:29:00,
2013-08-01 03:34:00,68.5,64.8,29.89,NW,322,2.0,4.0,88,0.00,,---,0.00,0.00,VWS V14.00,2013-08-01 07:34:00,
2013-08-01 03:44:00,68.3,64.6,29.90,WNW,302,2.0,5.0,88,0.00,,---,0.00,0.00,VWS V14.00,2013-08-01 07:44:00,
2013-08-01 03:54:00,68.3,64.6,29.90,NW,317,4.0,5.0,88,0.00,,---,0.00,0.00,VWS V14.00,2013-08-01 07:54:00,
2013-08-01 04:00:00,68.2,64.5,29.89,NW,319,2.0,5.0,88,0.00,,---,0.00,0.00,VWS V14.00,2013-08-01 08:00:00,
2013-08-01 04:05:00,68.1,64.4,29.89,NW,319,1.0,2.0,88,0.00,,---,0.00,0.00,VWS V14.00,2013-08-01 08:05:00,
2013-08-01 04:10:00,68.1,64.4,29.89,NW,319,1.0,1.0,88,0.00,,---,0.00,0.00,VWS V14.00,2013-08-01 08:10:00,
2013-08-01 04:15:00,68.1,64.4,29.89,NW,319,2.0,6.0,88,0.00,,---,0.00,0.00,VWS V14.00,2013-08-01 08:15:00,
2013-08-01 04:20:00,68.1,64.4,29.89,NW,323,4.0,6.0,88,0.00,,---,0.00,0.00,VWS V14.00,2013-08-01 08:20:00,
2013-08-01 04:25:00,68.1,64.4,29.89,NW,319,5.0,8.0,88,0.00,,---,0.00,0.00,VWS V14.00,2013-08-01 08:25:00,
2013-08-01 04:34:00,68.0,64.3,29.89,NW,314,3.0,6.0,88,0.00,,---,0.00,0.00,VWS V14.00,2013-08-01 08:34:00,
2013-08-01 04:40:00,67.9,64.2,29.89,NW,320,4.0,5.0,88,0.00,,---,0.00,0.00,VWS V14.00,2013-08-01 08:40:00,
2013-08-01 04:45:00,67.9,64.2,29.89,WNW,302,3.0,6.0,88,0.00,,---,0.00,0.00,VWS V14.00,2013-08-01 08:45:00,
2013-08-01 04:50:00,67.9,64.2,29.89,WNW,300,2.0,4.0,88,0.00,,---,0.00,0.00,VWS V14.00,2013-08-01 08:50:00,
2013-08-01 05:00:00,67.9,63.9,29.89,NW,323,2.0,5.0,87,0.00,,---,0.00,0.00,VWS V14.00,2013-08-01 09:00:00,
2013-08-01 05:05:00,67.9,63.9,29.89,NW,315,4.0,7.0,87,0.00,,---,0.00,0.00,VWS V14.00,2013-08-01 09:05:00,
2013-08-01 05:14:00,68.0,64.0,29.89,NW,308,4.0,6.0,87,0.00,,---,0.00,0.00,VWS V14.00,2013-08-01 09:14:00,
2013-08-01 05:20:00,68.0,64.0,29.89,NW,316,4.0,6.0,87,0.00,,---,0.00,0.00,VWS V14.00,2013-08-01 09:20:00,
2013-08-01 05:25:00,68.1,64.1,29.89,WNW,296,3.0,6.0,87,0.00,,---,0.00,0.00,VWS V14.00,2013-08-01 09:25:00,
2013-08-01 05:39:00,68.2,64.2,29.90,NW,321,6.0,8.0,87,0.00,,---,0.00,0.00,VWS V14.00,2013-08-01 09:39:00,
2013-08-01 05:44:00,68.3,64.3,29.91,NW,318,4.0,8.0,87,0.00,,---,0.00,0.00,VWS V14.00,2013-08-01 09:44:00,
2013-08-01 05:51:00,68.4,64.4,29.91,NW,318,3.0,7.0,87,0.00,,---,0.00,0.00,VWS V14.00,2013-08-01 09:51:00,
2013-08-01 06:04:00,68.5,64.5,29.91,NW,312,4.0,9.0,87,0.00,,---,0.00,0.00,VWS V14.00,2013-08-01 10:04:00,
2013-08-01 06:09:00,68.5,64.5,29.92,NW,321,4.0,10.0,87,0.00,,---,0.00,0.00,VWS V14.00,2013-08-01 10:09:00,
2013-08-01 06:17:00,68.5,64.5,29.92,NW,322,5.0,7.0,87,0.00,,---,0.00,0.00,VWS V14.00,2013-08-01 10:17:00,
2013-08-01 06:22:00,68.5,64.5,29.92,NW,307,6.0,8.0,87,0.00,,---,0.00,0.00,VWS V14.00,2013-08-01 10:22:00,
2013-08-01 06:27:00,68.5,64.5,29.91,NNW,335,1.0,10.0,87,0.00,,---,0.00,0.00,VWS V14.00,2013-08-01 10:27:00,
2013-08-01 06:32:00,68.4,64.4,29.92,NW,313,0.0,4.0,87,0.00,,---,0.00,0.00,VWS V14.00,2013-08-01 10:32:00,
2013-08-01 06:37:00,68.4,64.7,29.92,WNW,284,4.0,5.0,88,0.00,,---,0.00,0.00,VWS V14.00,2013-08-01 10:37:00,
2013-08-01 06:44:00,68.4,64.7,29.92,NW,310,0.0,4.0,88,0.00,,---,0.00,0.00,VWS V14.00,2013-08-01 10:44:00,
2013-08-01 06:52:00,68.5,64.8,29.92,NW,324,2.0,5.0,88,0.00,,---,0.00,0.00,VWS V14.00,2013-08-01 10:52:00,
2013-08-01 06:57:00,68.5,64.8,29.92,NW,320,4.0,6.0,88,0.00,,---,0.00,7.00,VWS V14.00,2013-08-01 10:57:00,
2013-08-01 07:09:00,68.4,64.7,29.93,NNW,330,0.0,8.0,88,0.00,,---,0.00,14.00,VWS V14.00,2013-08-01 11:09:00,
2013-08-01 07:17:00,68.4,64.7,29.93,NW,319,4.0,8.0,88,0.00,,---,0.00,21.00,VWS V14.00,2013-08-01 11:17:00,
2013-08-01 07:22:00,68.3,64.9,29.94,NW,320,6.0,10.0,89,0.00,,---,0.00,33.00,VWS V14.00,2013-08-01 11:22:00,
2013-08-01 07:33:00,68.1,65.1,29.94,NW,316,0.0,7.0,90,0.00,,---,0.00,47.00,VWS V14.00,2013-08-01 11:33:00,
2013-08-01 07:38:00,68.0,65.0,29.94,NNW,338,0.0,6.0,90,0.00,,---,0.00,60.00,VWS V14.00,2013-08-01 11:38:00,
2013-08-01 07:43:00,68.0,65.0,29.94,WNW,300,3.0,12.0,90,0.00,,---,0.00,77.00,VWS V14.00,2013-08-01 11:43:00,
2013-08-01 07:48:00,68.1,65.4,29.94,NNW,334,1.0,9.0,91,0.00,,---,0.00,56.00,VWS V14.00,2013-08-01 11:48:00,
2013-08-01 07:53:00,68.1,65.4,29.94,NNW,327,0.0,13.0,91,0.00,,---,0.00,76.00,VWS V14.00,2013-08-01 11:53:00,
2013-08-01 07:58:00,68.2,65.5,29.94,NNW,333,1.0,2.0,91,0.00,,---,0.00,69.00,VWS V14.00,2013-08-01 11:58:00,
2013-08-01 08:04:00,68.3,65.6,29.94,NNE,17,5.0,5.0,91,0.00,,---,0.00,98.00,VWS V14.00,2013-08-01 12:04:00,
2013-08-01 08:09:00,68.2,65.5,29.94,NNW,327,0.0,8.0,91,0.00,,---,0.00,93.00,VWS V14.00,2013-08-01 12:09:00,
2013-08-01 08:14:00,68.3,65.3,29.94,NNW,339,6.0,8.0,90,0.00,,---,0.00,113.00,VWS V14.00,2013-08-01 12:14:00,
2013-08-01 08:23:00,68.4,65.7,29.95,WNW,302,7.0,7.0,91,0.00,,---,0.00,120.00,VWS V14.00,2013-08-01 12:23:00,
2013-08-01 08:29:00,68.5,65.8,29.95,NW,323,0.0,5.0,91,0.00,,---,0.00,107.00,VWS V14.00,2013-08-01 12:29:00,
2013-08-01 08:39:00,68.7,65.7,29.95,ENE,77,0.0,5.0,90,0.00,,---,0.00,290.00,VWS V14.00,2013-08-01 12:39:00,
2013-08-01 08:44:00,69.0,65.9,29.95,NW,309,0.0,9.0,90,0.00,,---,0.00,352.00,VWS V14.00,2013-08-01 12:44:00,
2013-08-01 08:49:00,69.3,66.2,29.95,NNE,24,0.0,8.0,90,0.00,,---,0.00,341.00,VWS V14.00,2013-08-01 12:49:00,
2013-08-01 08:54:00,69.7,66.3,29.95,NNE,20,0.0,4.0,89,0.00,,---,0.00,127.00,VWS V14.00,2013-08-01 12:54:00,
2013-08-01 09:04:00,70.1,66.1,29.95,NNW,329,0.0,12.0,87,0.00,,---,0.00,135.00,VWS V14.00,2013-08-01 13:04:00,
2013-08-01 09:09:00,70.0,66.0,29.95,NNW,327,1.0,11.0,87,0.00,,---,0.00,350.00,VWS V14.00,2013-08-01 13:09:00,
2013-08-01 09:14:00,70.0,66.0,29.95,NW,325,1.0,8.0,87,0.00,,---,0.00,146.00,VWS V14.00,2013-08-01 13:14:00,
2013-08-01 09:19:00,69.9,65.9,29.95,North,5,0.0,0.0,87,0.00,,---,0.00,137.00,VWS V14.00,2013-08-01 13:19:00,
2013-08-01 09:24:00,69.9,66.2,29.95,NNW,330,0.0,0.0,88,0.00,,---,0.00,427.00,VWS V14.00,2013-08-01 13:24:00,
2013-08-01 09:34:00,70.1,66.4,29.95,NW,311,1.0,1.0,88,0.00,,---,0.00,279.00,VWS V14.00,2013-08-01 13:34:00,
2013-08-01 09:39:00,70.2,66.2,29.95,NW,308,2.0,12.0,87,0.00,,---,0.00,272.00,VWS V14.00,2013-08-01 13:39:00,
2013-08-01 09:44:00,70.4,66.3,29.95,NW,313,1.0,9.0,87,0.00,,---,0.00,308.00,VWS V14.00,2013-08-01 13:44:00,
2013-08-01 09:49:00,70.6,66.2,29.95,North,9,1.0,5.0,86,0.00,,---,0.00,320.00,VWS V14.00,2013-08-01 13:49:00,
2013-08-01 09:54:00,70.8,66.1,29.95,NNW,346,1.0,9.0,85,0.00,,---,0.00,288.00,VWS V14.00,2013-08-01 13:54:00,
2013-08-01 10:00:00,70.9,66.5,29.95,North,351,1.0,2.0,86,0.00,,---,0.00,659.00,VWS V14.00,2013-08-01 14:00:00,
2013-08-01 10:05:00,71.3,66.9,29.96,NNE,14,0.0,0.0,86,0.00,,---,0.00,244.00,VWS V14.00,2013-08-01 14:05:00,
2013-08-01 10:10:00,71.3,66.6,29.96,NNE,14,0.0,3.0,85,0.00,,---,0.00,387.00,VWS V14.00,2013-08-01 14:10:00,
2013-08-01 10:19:00,71.4,66.3,29.96,NW,306,5.0,12.0,84,0.00,,---,0.00,276.00,VWS V14.00,2013-08-01 14:19:00,
2013-08-01 10:24:00,71.4,66.7,29.96,NW,326,0.0,7.0,85,0.00,,---,0.00,207.00,VWS V14.00,2013-08-01 14:24:00,
2013-08-01 10:29:00,71.2,66.1,29.96,NW,324,6.0,8.0,84,0.00,,---,0.00,197.00,VWS V14.00,2013-08-01 14:29:00,
2013-08-01 10:35:00,71.0,66.3,29.96,NNW,334,0.0,4.0,85,0.00,,---,0.00,230.00,VWS V14.00,2013-08-01 14:35:00,
2013-08-01 10:40:00,71.0,66.6,29.96,NW,309,0.0,0.0,86,0.00,,---,0.00,345.00,VWS V14.00,2013-08-01 14:40:00,
2013-08-01 10:45:00,71.4,67.3,29.96,NW,319,7.0,8.0,87,0.00,,---,0.00,795.00,VWS V14.00,2013-08-01 14:45:00,
2013-08-01 10:50:00,71.6,66.2,29.96,NNW,329,0.0,2.0,83,0.00,,---,0.00,190.00,VWS V14.00,2013-08-01 14:50:00,
2013-08-01 10:55:00,71.6,66.2,29.96,NW,318,7.0,12.0,83,0.00,,---,0.00,487.00,VWS V14.00,2013-08-01 14:55:00,
2013-08-01 11:05:00,71.9,66.8,29.96,NW,304,1.0,4.0,84,0.00,,---,0.00,788.00,VWS V14.00,2013-08-01 15:05:00,
2013-08-01 11:14:00,72.7,66.5,29.96,NNE,22,1.0,5.0,81,0.00,,---,0.00,795.00,VWS V14.00,2013-08-01 15:14:00,
2013-08-01 11:19:00,73.3,66.8,29.96,NE,46,0.0,11.0,80,0.00,,---,0.00,795.00,VWS V14.00,2013-08-01 15:19:00,
2013-08-01 11:25:00,73.5,67.0,29.97,NNW,331,0.0,2.0,80,0.00,,---,0.00,810.00,VWS V14.00,2013-08-01 15:25:00,
2013-08-01 11:30:00,73.8,67.6,29.97,NW,314,2.0,6.0,81,0.00,,---,0.00,819.00,VWS V14.00,2013-08-01 15:30:00,
2013-08-01 11:40:00,74.3,67.4,29.97,NW,316,3.0,6.0,79,0.00,,---,0.00,287.00,VWS V14.00,2013-08-01 15:40:00,
2013-08-01 11:45:00,74.1,67.2,29.97,NNW,329,5.0,5.0,79,0.00,,---,0.00,311.00,VWS V14.00,2013-08-01 15:45:00,
2013-08-01 11:59:00,73.5,67.7,29.97,NNE,24,0.0,7.0,82,0.00,,---,0.00,338.00,VWS V14.00,2013-08-01 15:59:00,
2013-08-01 12:09:00,74.2,67.3,29.97,NW,320,2.0,10.0,79,0.00,,---,0.00,965.00,VWS V14.00,2013-08-01 16:09:00,
2013-08-01 12:14:00,74.7,68.1,29.97,NNW,327,0.0,4.0,80,0.00,,---,0.00,997.00,VWS V14.00,2013-08-01 16:14:00,
2013-08-01 12:19:00,74.6,66.9,29.97,NW,315,6.0,10.0,77,0.00,,---,0.00,306.00,VWS V14.00,2013-08-01 16:19:00,
2013-08-01 12:24:00,74.2,67.6,29.97,NNW,330,0.0,9.0,80,0.00,,---,0.00,949.00,VWS V14.00,2013-08-01 16:24:00,
2013-08-01 12:29:00,74.4,67.5,29.97,NW,311,0.0,6.0,79,0.00,,---,0.00,935.00,VWS V14.00,2013-08-01 16:29:00,
2013-08-01 12:34:00,74.8,67.9,29.97,NNW,330,4.0,7.0,79,0.00,,---,0.00,1035.00,VWS V14.00,2013-08-01 16:34:00,
2013-08-01 12:39:00,75.5,68.2,29.97,NE,36,0.0,5.0,78,0.00,,---,0.00,1104.00,VWS V14.00,2013-08-01 16:39:00,
2013-08-01 12:44:00,75.5,67.4,29.97,WNW,297,6.0,10.0,76,0.00,,---,0.00,297.00,VWS V14.00,2013-08-01 16:44:00,
2013-08-01 12:57:00,75.7,67.6,29.97,ENE,70,0.0,2.0,76,0.00,,---,0.00,360.00,VWS V14.00,2013-08-01 16:57:00,
2013-08-01 13:04:00,76.0,67.9,29.97,NW,311,1.0,7.0,76,0.00,,---,0.00,253.00,VWS V14.00,2013-08-01 17:04:00,
2013-08-01 13:12:00,76.2,68.1,29.97,NW,322,7.0,8.0,76,0.00,,---,0.00,287.00,VWS V14.00,2013-08-01 17:12:00,
2013-08-01 13:17:00,76.3,67.4,29.96,NW,325,1.0,8.0,74,0.00,,---,0.00,336.00,VWS V14.00,2013-08-01 17:17:00,
2013-08-01 13:22:00,76.3,67.8,29.96,NNE,19,0.0,5.0,75,0.00,,---,0.00,316.00,VWS V14.00,2013-08-01 17:22:00,
2013-08-01 13:34:00,75.8,67.7,29.97,NNW,327,5.0,7.0,76,0.00,,---,0.00,251.00,VWS V14.00,2013-08-01 17:34:00,
2013-08-01 13:39:00,75.5,67.8,29.96,NW,319,7.0,9.0,77,0.00,,---,0.00,1069.00,VWS V14.00,2013-08-01 17:39:00,
2013-08-01 13:53:00,76.0,67.9,29.96,NW,321,7.0,8.0,76,0.00,,---,0.00,253.00,VWS V14.00,2013-08-01 17:53:00,
2013-08-01 13:59:00,76.0,68.3,29.96,NW,313,0.0,5.0,77,0.00,,---,0.00,207.00,VWS V14.00,2013-08-01 17:59:00,
2013-08-01 14:09:00,76.2,67.3,29.96,NW,315,4.0,5.0,74,0.00,,---,0.00,1020.00,VWS V14.00,2013-08-01 18:09:00,
2013-08-01 14:18:00,77.0,67.3,29.95,WNW,290,0.0,6.0,72,0.00,,---,0.00,218.00,VWS V14.00,2013-08-01 18:18:00,
2013-08-01 14:23:00,77.3,68.0,29.95,NW,317,1.0,9.0,73,0.00,,---,0.00,979.00,VWS V14.00,2013-08-01 18:23:00,
2013-08-01 14:29:00,77.6,67.9,29.95,WNW,301,7.0,7.0,72,0.00,,---,0.00,983.00,VWS V14.00,2013-08-01 18:29:00,
2013-08-01 14:34:00,77.9,66.9,29.95,NW,323,6.0,12.0,69,0.00,,---,0.00,1027.00,VWS V14.00,2013-08-01 18:34:00,
2013-08-01 14:49:00,78.6,67.2,29.94,NW,319,6.0,11.0,68,0.00,,---,0.00,1071.00,VWS V14.00,2013-08-01 18:49:00,
2013-08-01 14:54:00,78.2,67.2,29.94,NW,315,4.0,8.0,69,0.00,,---,0.00,951.00,VWS V14.00,2013-08-01 18:54:00,
2013-08-01 14:59:00,78.0,67.0,29.94,WSW,250,0.0,5.0,69,0.00,,---,0.00,958.00,VWS V14.00,2013-08-01 18:59:00,
2013-08-01 15:04:00,78.5,67.1,29.94,NW,317,5.0,7.0,68,0.00,,---,0.00,907.00,VWS V14.00,2013-08-01 19:04:00,
2013-08-01 15:09:00,78.7,67.7,29.93,NW,324,5.0,5.0,69,0.00,,---,0.00,944.00,VWS V14.00,2013-08-01 19:09:00,
2013-08-01 15:14:00,79.0,67.6,29.93,NNW,344,1.0,7.0,68,0.00,,---,0.00,939.00,VWS V14.00,2013-08-01 19:14:00,
2013-08-01 15:19:00,79.4,67.5,29.93,NNW,331,1.0,7.0,67,0.00,,---,0.00,958.00,VWS V14.00,2013-08-01 19:19:00,
2013-08-01 15:29:00,79.1,67.2,29.93,NNW,331,6.0,12.0,67,0.00,,---,0.00,940.00,VWS V14.00,2013-08-01 19:29:00,
2013-08-01 15:34:00,79.0,67.1,29.93,WNW,296,9.0,11.0,67,0.00,,---,0.00,962.00,VWS V14.00,2013-08-01 19:34:00,
2013-08-01 15:49:00,79.6,67.7,29.93,NW,317,4.0,7.0,67,0.00,,---,0.00,220.00,VWS V14.00,2013-08-01 19:49:00,
2013-08-01 15:54:00,79.2,66.9,29.93,NNW,337,5.0,9.0,66,0.00,,---,0.00,225.00,VWS V14.00,2013-08-01 19:54:00,
2013-08-01 16:04:00,79.3,67.8,29.93,North,9,1.0,12.0,68,0.00,,---,0.00,874.00,VWS V14.00,2013-08-01 20:04:00,
2013-08-01 16:10:00,79.9,68.0,29.93,West,271,0.0,4.0,67,0.00,,---,0.00,863.00,VWS V14.00,2013-08-01 20:10:00,
2013-08-01 16:15:00,80.7,68.3,29.92,NNW,333,0.0,1.0,66,0.00,,---,0.00,826.00,VWS V14.00,2013-08-01 20:15:00,
2013-08-01 16:25:00,81.1,64.9,29.92,NW,306,1.0,13.0,58,0.00,,---,0.00,817.00,VWS V14.00,2013-08-01 20:25:00,
2013-08-01 16:30:00,80.9,66.7,29.92,NW,314,3.0,7.0,62,0.00,,---,0.00,814.00,VWS V14.00,2013-08-01 20:30:00,
2013-08-01 16:35:00,80.8,67.5,29.92,NW,319,7.0,7.0,64,0.00,,---,0.00,773.00,VWS V14.00,2013-08-01 20:35:00,
2013-08-01 16:40:00,80.8,66.6,29.92,NW,316,8.0,10.0,62,0.00,,---,0.00,795.00,VWS V14.00,2013-08-01 20:40:00,
2013-08-01 16:45:00,80.7,66.0,29.92,NW,315,6.0,6.0,61,0.00,,---,0.00,139.00,VWS V14.00,2013-08-01 20:45:00,
2013-08-01 16:50:00,80.9,65.7,29.92,NW,317,8.0,10.0,60,0.00,,---,0.00,773.00,VWS V14.00,2013-08-01 20:50:00,
2013-08-01 16:59:00,80.3,63.7,29.92,NW,319,6.0,11.0,57,0.00,,---,0.00,752.00,VWS V14.00,2013-08-01 20:59:00,
2013-08-01 17:05:00,80.3,64.2,29.92,NNW,333,2.0,10.0,58,0.00,,---,0.00,721.00,VWS V14.00,2013-08-01 21:05:00,
2013-08-01 17:10:00,80.5,63.9,29.91,NW,319,0.0,9.0,57,0.00,,---,0.00,111.00,VWS V14.00,2013-08-01 21:10:00,
2013-08-01 17:15:00,80.3,64.7,29.91,NW,318,7.0,7.0,59,0.00,,---,0.00,687.00,VWS V14.00,2013-08-01 21:15:00,
2013-08-01 17:25:00,80.5,64.4,29.91,NW,323,4.0,8.0,58,0.00,,---,0.00,638.00,VWS V14.00,2013-08-01 21:25:00,
2013-08-01 17:36:00,81.0,64.3,29.92,NNW,330,14.0,15.0,57,0.00,,---,0.00,606.00,VWS V14.00,2013-08-01 21:36:00,
2013-08-01 17:54:00,79.6,63.5,29.91,NW,311,7.0,10.0,58,0.00,,---,0.00,121.00,VWS V14.00,2013-08-01 21:54:00,
2013-08-01 18:01:00,78.9,64.8,29.92,NNW,330,5.0,7.0,62,0.00,,---,0.00,139.00,VWS V14.00,2013-08-01 22:01:00,
2013-08-01 18:06:00,78.5,64.9,29.92,NW,311,8.0,11.0,63,0.00,,---,0.00,359.00,VWS V14.00,2013-08-01 22:06:00,
2013-08-01 18:14:00,79.1,65.0,29.92,WNW,298,8.0,15.0,62,0.00,,---,0.00,497.00,VWS V14.00,2013-08-01 22:14:00,
2013-08-01 18:22:00,79.7,65.1,29.92,WNW,287,8.0,11.0,61,0.00,,---,0.00,476.00,VWS V14.00,2013-08-01 22:22:00,
2013-08-01 18:27:00,79.9,64.3,29.92,NNW,327,4.0,11.0,59,0.00,,---,0.00,446.00,VWS V14.00,2013-08-01 22:27:00,
2013-08-01 18:32:00,80.0,64.4,29.92,NW,312,8.0,14.0,59,0.00,,---,0.00,408.00,VWS V14.00,2013-08-01 22:32:00,
2013-08-01 18:37:00,80.0,64.9,29.92,NW,305,5.0,12.0,60,0.00,,---,0.00,387.00,VWS V14.00,2013-08-01 22:37:00,
2013-08-01 18:42:00,79.8,64.2,29.92,NW,317,10.0,13.0,59,0.00,,---,0.00,378.00,VWS V14.00,2013-08-01 22:42:00,
2013-08-01 18:49:00,79.8,64.2,29.92,NNW,333,4.0,12.0,59,0.00,,---,0.00,352.00,VWS V14.00,2013-08-01 22:49:00,
2013-08-01 18:57:00,79.7,63.1,29.92,NW,320,9.0,10.0,57,0.00,,---,0.00,308.00,VWS V14.00,2013-08-01 22:57:00,
2013-08-01 19:02:00,79.5,62.5,29.91,NW,320,10.0,12.0,56,0.00,,---,0.00,287.00,VWS V14.00,2013-08-01 23:02:00,
2013-08-01 19:07:00,79.5,63.0,29.91,WNW,287,5.0,7.0,57,0.00,,---,0.00,281.00,VWS V14.00,2013-08-01 23:07:00,
2013-08-01 19:14:00,79.5,63.0,29.91,NNW,333,8.0,11.0,57,0.00,,---,0.00,267.00,VWS V14.00,2013-08-01 23:14:00,
2013-08-01 19:22:00,79.4,63.8,29.91,NW,325,8.0,8.0,59,0.00,,---,0.00,237.00,VWS V14.00,2013-08-01 23:22:00,
2013-08-01 19:27:00,79.3,63.3,29.91,NW,317,10.0,10.0,58,0.00,,---,0.00,213.00,VWS V14.00,2013-08-01 23:27:00,
2013-08-01 19:32:00,79.0,62.5,29.91,NW,317,6.0,12.0,57,0.00,,---,0.00,185.00,VWS V14.00,2013-08-01 23:32:00,
2013-08-01 19:37:00,78.8,61.8,29.91,NNW,330,5.0,14.0,56,0.00,,---,0.00,162.00,VWS V14.00,2013-08-01 23:37:00,
2013-08-01 19:42:00,78.6,62.1,29.91,NW,317,9.0,9.0,57,0.00,,---,0.00,139.00,VWS V14.00,2013-08-01 23:42:00,
2013-08-01 19:47:00,78.4,61.9,29.91,WNW,303,5.0,13.0,57,0.00,,---,0.00,123.00,VWS V14.00,2013-08-01 23:47:00,
2013-08-01 19:52:00,78.3,61.8,29.91,NW,321,4.0,14.0,57,0.00,,---,0.00,109.00,VWS V14.00,2013-08-01 23:52:00,
2013-08-01 19:57:00,78.0,61.5,29.91,NNW,331,6.0,11.0,57,0.00,,---,0.00,95.00,VWS V14.00,2013-08-01 23:57:00,
2013-08-01 20:04:00,77.7,61.8,29.91,NW,320,5.0,8.0,58,0.00,,---,0.00,37.00,VWS V14.00,2013-08-02 00:04:00,
2013-08-01 20:14:00,77.3,60.4,29.91,NW,326,1.0,10.0,56,0.00,,---,0.00,26.00,VWS V14.00,2013-08-02 00:14:00,
2013-08-01 20:19:00,77.1,60.7,29.91,NW,318,5.0,10.0,57,0.00,,---,0.00,25.00,VWS V14.00,2013-08-02 00:19:00,
2013-08-01 20:28:00,76.7,59.8,29.91,NW,322,1.0,8.0,56,0.00,,---,0.00,18.00,VWS V14.00,2013-08-02 00:28:00,
2013-08-01 20:33:00,76.5,60.2,29.91,NW,318,5.0,6.0,57,0.00,,---,0.00,12.00,VWS V14.00,2013-08-02 00:33:00,
2013-08-01 20:38:00,76.2,59.9,29.91,NW,321,2.0,7.0,57,0.00,,---,0.00,7.00,VWS V14.00,2013-08-02 00:38:00,
2013-08-01 20:43:00,75.9,59.6,29.91,NW,319,4.0,6.0,57,0.00,,---,0.00,5.00,VWS V14.00,2013-08-02 00:43:00,
2013-08-01 20:48:00,75.7,59.9,29.91,NW,321,2.0,6.0,58,0.00,,---,0.00,0.00,VWS V14.00,2013-08-02 00:48:00,
2013-08-01 20:53:00,75.4,59.6,29.91,NW,321,5.0,7.0,58,0.00,,---,0.00,0.00,VWS V14.00,2013-08-02 00:53:00,
2013-08-01 20:58:00,75.3,59.0,29.92,NW,325,5.0,6.0,57,0.00,,---,0.00,0.00,VWS V14.00,2013-08-02 00:58:00,
2013-08-01 21:03:00,75.1,59.3,29.92,NW,322,1.0,6.0,58,0.00,,---,0.00,0.00,VWS V14.00,2013-08-02 01:03:00,
2013-08-01 21:08:00,74.9,59.6,29.92,NW,317,0.0,4.0,59,0.00,,---,0.00,0.00,VWS V14.00,2013-08-02 01:08:00,
2013-08-01 21:13:00,74.6,59.3,29.92,NW,319,2.0,4.0,59,0.00,,---,0.00,0.00,VWS V14.00,2013-08-02 01:13:00,
2013-08-01 21:18:00,74.3,59.1,29.92,NW,325,2.0,4.0,59,0.00,,---,0.00,0.00,VWS V14.00,2013-08-02 01:18:00,
2013-08-01 21:23:00,74.0,59.2,29.93,NW,325,2.0,4.0,60,0.00,,---,0.00,0.00,VWS V14.00,2013-08-02 01:23:00,
2013-08-01 21:28:00,73.8,59.1,29.93,NW,325,0.0,3.0,60,0.00,,---,0.00,0.00,VWS V14.00,2013-08-02 01:28:00,
2013-08-01 21:33:00,73.5,59.2,29.93,NW,325,0.0,1.0,61,0.00,,---,0.00,0.00,VWS V14.00,2013-08-02 01:33:00,
2013-08-01 21:38:00,73.2,59.0,29.93,NW,325,0.0,1.0,61,0.00,,---,0.00,0.00,VWS V14.00,2013-08-02 01:38:00,
2013-08-01 21:43:00,72.9,59.1,29.93,NW,325,0.0,0.0,62,0.00,,---,0.00,0.00,VWS V14.00,2013-08-02 01:43:00,
2013-08-01 21:53:00,72.5,59.2,29.93,NW,325,0.0,0.0,63,0.00,,---,0.00,0.00,VWS V14.00,2013-08-02 01:53:00,
2013-08-01 21:59:00,72.2,59.8,29.93,NW,325,0.0,0.0,65,0.00,,---,0.00,0.00,VWS V14.00,2013-08-02 01:59:00,
2013-08-01 22:04:00,71.6,59.2,29.94,NW,325,0.0,0.0,65,0.00,,---,0.00,0.00,VWS V14.00,2013-08-02 02:04:00,
2013-08-01 22:13:00,70.9,59.4,29.94,NW,325,0.0,0.0,67,0.00,,---,0.00,0.00,VWS V14.00,2013-08-02 02:13:00,
2013-08-01 22:18:00,70.7,59.2,29.94,NW,325,0.0,0.0,67,0.00,,---,0.00,0.00,VWS V14.00,2013-08-02 02:18:00,
2013-08-01 22:23:00,70.4,59.3,29.94,NW,325,0.0,0.0,68,0.00,,---,0.00,0.00,VWS V14.00,2013-08-02 02:23:00,
2013-08-01 22:28:00,70.1,59.5,29.94,NW,325,0.0,0.0,69,0.00,,---,0.00,0.00,VWS V14.00,2013-08-02 02:28:00,
2013-08-01 22:33:00,69.9,59.7,29.94,NW,325,1.0,1.0,70,0.00,,---,0.00,0.00,VWS V14.00,2013-08-02 02:33:00,
2013-08-01 22:38:00,69.8,59.6,29.94,NW,325,0.0,1.0,70,0.00,,---,0.00,0.00,VWS V14.00,2013-08-02 02:38:00,
2013-08-01 22:48:00,69.7,59.9,29.94,NW,325,0.0,1.0,71,0.00,,---,0.00,0.00,VWS V14.00,2013-08-02 02:48:00,
2013-08-01 22:53:00,69.5,59.7,29.94,NW,325,0.0,0.0,71,0.00,,---,0.00,0.00,VWS V14.00,2013-08-02 02:53:00,
2013-08-01 22:58:00,69.3,59.5,29.94,NW,325,1.0,1.0,71,0.00,,---,0.00,0.00,VWS V14.00,2013-08-02 02:58:00,
2013-08-01 23:03:00,69.2,59.8,29.94,NW,325,0.0,4.0,72,0.00,,---,0.00,0.00,VWS V14.00,2013-08-02 03:03:00,
2013-08-01 23:08:00,69.0,60.4,29.94,NW,321,0.0,2.0,74,0.00,,---,0.00,0.00,VWS V14.00,2013-08-02 03:08:00,
2013-08-01 23:14:00,68.7,60.5,29.94,NW,321,0.0,0.0,75,0.00,,---,0.00,0.00,VWS V14.00,2013-08-02 03:14:00,
2013-08-01 23:19:00,68.4,60.5,29.95,NW,320,0.0,2.0,76,0.00,,---,0.00,0.00,VWS V14.00,2013-08-02 03:19:00,
2013-08-01 23:24:00,68.2,60.3,29.95,NW,320,0.0,1.0,76,0.00,,---,0.00,0.00,VWS V14.00,2013-08-02 03:24:00,
2013-08-01 23:34:00,68.2,60.7,29.95,NW,321,0.0,0.0,77,0.00,,---,0.00,0.00,VWS V14.00,2013-08-02 03:34:00,
2013-08-01 23:39:00,68.1,60.6,29.95,NW,320,0.0,1.0,77,0.00,,---,0.00,0.00,VWS V14.00,2013-08-02 03:39:00,
2013-08-01 23:44:00,68.1,60.6,29.94,NW,320,0.0,1.0,77,0.00,,---,0.00,0.00,VWS V14.00,2013-08-02 03:44:00,
2013-08-01 23:49:00,68.2,60.7,29.94,NW,320,0.0,0.0,77,0.00,,---,0.00,0.00,VWS V14.00,2013-08-02 03:49:00,
2013-08-01 23:54:00,68.2,60.7,29.94,NW,321,1.0,1.0,77,0.00,,---,0.00,0.00,VWS V14.00,2013-08-02 03:54:00,
2013-08-01 23:59:00,68.2,60.3,29.94,NW,321,0.0,2.0,76,0.00,,---,0.00,0.00,VWS V14.00,2013-08-02 03:59:00,